Time;durP1;ratioP1;P1;durP2;ratioP2;P2;SDS_P1;SDS_P2;PMS_P1;PMS_P2;Temp;Humidity;BMP_temperature;BMP_pressure;BME280_temperature;BME280_humidity;BME280_pressure;Samples;Min_cycle;Max_cycle;Signal;HPM_P1;HPM_P2
2022/11/02 00:01:54;;;;;;;33.07;19.53;;;11.40;99.90;;;;;;5084565;28;21020;-73
2022/11/02 00:04:21;;;;;;;33.10;19.07;;;11.40;99.90;;;;;;5089448;28;20688;-73
2022/11/02 00:06:49;;;;;;;31.07;19.10;;;11.40;99.90;;;;;;5092601;28;20771;-74
2022/11/02 00:09:16;;;;;;;29.80;18.43;;;11.40;99.90;;;;;;5089562;28;20209;-74
2022/11/02 00:11:43;;;;;;;32.13;18.60;;;11.40;99.90;;;;;;5090178;28;20226;-74
2022/11/02 00:14:10;;;;;;;34.03;19.53;;;11.40;99.90;;;;;;5089884;28;20212;-74
2022/11/02 00:16:38;;;;;;;36.37;19.30;;;11.40;99.90;;;;;;5091514;28;20213;-74
2022/11/02 00:19:06;;;;;;;33.87;20.27;;;11.40;99.90;;;;;;5090788;28;20201;-73
2022/11/02 00:21:33;;;;;;;32.47;19.87;;;11.40;99.90;;;;;;5089905;28;20208;-74
2022/11/02 00:24:01;;;;;;;33.93;20.17;;;11.40;99.90;;;;;;5091613;28;20220;-74
2022/11/02 00:26:29;;;;;;;30.60;18.83;;;11.40;99.90;;;;;;5089968;28;20570;-75
2022/11/02 00:28:56;;;;;;;33.90;20.13;;;11.40;99.90;;;;;;5089352;28;20426;-74
2022/11/02 00:31:22;;;;;;;32.73;19.57;;;11.40;99.90;;;;;;5090627;28;20212;-73
2022/11/02 00:33:49;;;;;;;34.17;20.10;;;11.40;99.90;;;;;;5091903;28;20205;-74
2022/11/02 00:36:16;;;;;;;33.37;20.50;;;11.40;99.90;;;;;;5090843;28;20207;-74
2022/11/02 00:38:43;;;;;;;33.37;20.23;;;11.40;99.90;;;;;;5091607;28;20216;-74
2022/11/02 00:41:11;;;;;;;32.30;19.70;;;11.40;99.90;;;;;;5088935;28;20227;-73
2022/11/02 00:43:38;;;;;;;34.83;20.50;;;11.40;99.90;;;;;;5091650;28;20689;-74
2022/11/02 00:46:05;;;;;;;36.00;21.00;;;11.50;99.90;;;;;;5089942;28;20235;-74
2022/11/02 00:48:32;;;;;;;37.53;21.70;;;11.40;99.90;;;;;;5087484;28;20661;-73
2022/11/02 00:50:59;;;;;;;37.30;20.80;;;11.50;99.90;;;;;;5088472;28;20209;-73
2022/11/02 00:53:25;;;;;;;37.40;22.40;;;11.40;99.90;;;;;;5090575;28;20211;-74
2022/11/02 00:55:52;;;;;;;38.83;22.13;;;11.40;99.90;;;;;;5090475;28;20216;-74
2022/11/02 00:58:21;;;;;;;36.33;20.97;;;11.50;99.90;;;;;;5090541;28;20254;-73
2022/11/02 01:00:47;;;;;;;39.33;21.53;;;11.50;99.90;;;;;;5090910;28;20217;-74
2022/11/02 01:03:14;;;;;;;34.30;20.23;;;11.40;99.90;;;;;;5088823;28;20221;-73
2022/11/02 01:05:41;;;;;;;46.80;23.03;;;11.50;99.90;;;;;;5090317;28;20220;-73
2022/11/02 01:08:07;;;;;;;35.90;21.77;;;11.50;99.90;;;;;;5090658;28;20239;-73
2022/11/02 01:10:34;;;;;;;36.80;21.77;;;11.50;99.90;;;;;;5091113;28;20212;-74
2022/11/02 01:13:01;;;;;;;41.23;22.60;;;11.40;99.90;;;;;;5090414;28;20211;-74
2022/11/02 01:15:29;;;;;;;34.33;21.83;;;11.50;99.90;;;;;;5091312;28;20201;-74
2022/11/02 01:17:56;;;;;;;37.60;21.53;;;11.50;99.90;;;;;;5088305;28;20660;-74
2022/11/02 01:20:22;;;;;;;39.83;22.63;;;11.50;99.90;;;;;;5090714;28;20209;-74
2022/11/02 01:22:49;;;;;;;39.03;22.20;;;11.50;99.90;;;;;;5089698;28;20228;-74
2022/11/02 01:25:16;;;;;;;37.97;22.07;;;11.60;99.90;;;;;;5091626;28;20247;-75
2022/11/02 01:27:43;;;;;;;37.47;21.60;;;11.60;99.90;;;;;;5090205;28;20213;-73
2022/11/02 01:30:11;;;;;;;37.97;21.67;;;11.60;99.90;;;;;;5090961;28;20201;-72
2022/11/02 01:32:39;;;;;;;36.60;22.37;;;11.60;99.90;;;;;;5090445;28;20568;-73
2022/11/02 01:35:06;;;;;;;37.87;22.40;;;11.60;99.90;;;;;;5091470;28;20650;-73
2022/11/02 01:37:33;;;;;;;40.60;22.63;;;11.60;99.90;;;;;;5089319;28;20196;-73
2022/11/02 01:40:00;;;;;;;38.77;21.20;;;11.70;99.90;;;;;;5093894;28;20204;-73
2022/11/02 01:42:28;;;;;;;35.97;22.17;;;11.70;99.90;;;;;;5093580;28;20492;-74
2022/11/02 01:44:54;;;;;;;40.30;22.27;;;11.70;99.90;;;;;;5094884;28;20235;-73
2022/11/02 01:47:25;;;;;;;42.23;23.03;;;11.70;99.90;;;;;;5093402;28;20219;-74
2022/11/02 01:49:57;;;;;;;41.97;23.00;;;11.70;99.90;;;;;;5092536;28;20215;-73
2022/11/02 01:52:28;;;;;;;38.63;22.53;;;11.70;99.90;;;;;;5093145;28;20239;-74
2022/11/02 01:55:01;;;;;;;35.93;22.03;;;11.70;99.90;;;;;;5093337;28;20220;-73
2022/11/02 01:57:29;;;;;;;40.07;22.97;;;11.70;99.90;;;;;;5092917;28;20220;-73
2022/11/02 01:59:58;;;;;;;43.50;24.00;;;11.70;99.90;;;;;;5093594;28;20578;-73
2022/11/02 02:02:27;;;;;;;45.63;24.00;;;11.70;99.90;;;;;;5094811;28;20235;-72
2022/11/02 02:05:00;;;;;;;47.53;25.23;;;11.70;99.90;;;;;;5093575;28;20235;-73
2022/11/02 02:07:28;;;;;;;45.03;25.27;;;11.70;99.90;;;;;;5092572;28;20233;-73
2022/11/02 02:09:55;;;;;;;43.23;24.77;;;11.60;99.90;;;;;;5093714;28;20886;-74
2022/11/02 02:12:24;;;;;;;47.77;25.43;;;11.60;99.90;;;;;;5093841;28;20208;-73
2022/11/02 02:14:51;;;;;;;40.80;23.60;;;11.70;99.90;;;;;;5095202;28;20204;-72
2022/11/02 02:17:28;;;;;;;39.83;23.93;;;11.70;99.90;;;;;;5092687;28;20208;-74
2022/11/02 02:20:02;;;;;;;46.27;24.77;;;11.70;99.90;;;;;;5090414;28;20219;-73
2022/11/02 02:23:06;;;;;;;50.60;26.97;;;11.70;99.90;;;;;;5094005;28;20696;-73
2022/11/02 02:26:00;;;;;;;47.10;23.77;;;11.60;99.90;;;;;;5092577;28;20224;-74
2022/11/02 02:28:34;;;;;;;49.00;25.93;;;11.70;99.90;;;;;;5093104;28;20652;-73
2022/11/02 02:31:08;;;;;;;49.20;26.80;;;11.70;99.90;;;;;;5094584;28;20203;-73
2022/11/02 02:33:41;;;;;;;51.17;26.10;;;11.70;99.90;;;;;;5093168;28;20215;-73
2022/11/02 02:36:13;;;;;;;55.00;26.97;;;11.70;99.90;;;;;;5094193;28;20199;-73
2022/11/02 02:38:44;;;;;;;51.30;27.37;;;11.70;99.90;;;;;;5083850;28;20676;-73
2022/11/02 02:41:14;;;;;;;56.67;28.90;;;11.70;99.90;;;;;;5092442;28;20224;-74
2022/11/02 02:43:44;;;;;;;56.63;28.47;;;11.70;99.90;;;;;;5093392;28;20209;-73
2022/11/02 02:46:15;;;;;;;62.73;29.90;;;11.70;99.90;;;;;;5092964;28;20244;-73
2022/11/02 02:48:45;;;;;;;54.43;28.80;;;11.70;99.90;;;;;;5091277;28;20212;-73
2022/11/02 02:51:18;;;;;;;60.53;30.03;;;11.80;99.90;;;;;;5092368;28;20399;-73
2022/11/02 02:53:48;;;;;;;61.20;29.90;;;11.80;99.90;;;;;;5092911;28;20216;-73
2022/11/02 02:56:18;;;;;;;62.57;31.23;;;11.80;99.90;;;;;;5091627;28;20549;-73
2022/11/02 02:58:51;;;;;;;69.90;32.97;;;11.70;99.90;;;;;;5093262;28;20212;-73
2022/11/02 03:01:19;;;;;;;71.50;33.93;;;11.80;99.90;;;;;;5091956;28;20545;-73
2022/11/02 03:03:47;;;;;;;73.60;32.83;;;11.70;99.90;;;;;;5089823;28;20213;-72
2022/11/02 03:06:19;;;;;;;66.37;32.77;;;11.80;99.90;;;;;;5091917;28;20235;-73
2022/11/02 03:08:55;;;;;;;72.90;33.60;;;11.70;99.90;;;;;;5078909;28;20236;-73
2022/11/02 03:11:23;;;;;;;81.07;33.67;;;11.70;99.90;;;;;;5092494;28;20215;-73
2022/11/02 03:14:06;;;;;;;77.47;33.40;;;11.70;99.90;;;;;;5092766;28;20208;-74
2022/11/02 03:16:52;;;;;;;68.90;33.17;;;11.70;99.90;;;;;;5090961;28;20201;-74
2022/11/02 03:19:24;;;;;;;75.63;34.03;;;11.80;99.90;;;;;;5091566;28;20294;-73
2022/11/02 03:21:59;;;;;;;77.63;35.03;;;11.80;99.90;;;;;;5092470;28;20200;-73
2022/11/02 03:24:29;;;;;;;68.00;33.70;;;11.80;99.90;;;;;;5093310;28;20224;-73
2022/11/02 03:27:07;;;;;;;76.30;33.83;;;11.80;99.90;;;;;;5090211;28;20376;-73
2022/11/02 03:29:42;;;;;;;75.30;34.47;;;11.80;99.90;;;;;;5091931;28;20205;-74
2022/11/02 03:32:12;;;;;;;78.80;35.53;;;11.90;99.90;;;;;;5091112;28;20204;-73
2022/11/02 03:34:43;;;;;;;80.93;34.73;;;11.90;99.90;;;;;;5091547;28;20213;-73
2022/11/02 03:37:16;;;;;;;77.73;34.67;;;11.90;99.90;;;;;;5090988;28;20205;-72
2022/11/02 03:39:46;;;;;;;78.37;36.60;;;11.90;99.90;;;;;;5092617;28;20211;-73
2022/11/02 03:42:17;;;;;;;77.63;34.63;;;11.90;99.90;;;;;;5091240;28;20204;-73
2022/11/02 03:44:47;;;;;;;73.70;35.10;;;11.90;99.90;;;;;;5092855;28;20209;-73
2022/11/02 03:47:19;;;;;;;78.33;36.07;;;12.00;99.90;;;;;;5090958;28;20228;-72
2022/11/02 03:49:49;;;;;;;77.47;35.43;;;12.00;99.90;;;;;;5092968;28;20200;-73
2022/11/02 03:52:21;;;;;;;77.67;35.43;;;12.00;99.90;;;;;;5091287;28;20200;-73
2022/11/02 03:54:57;;;;;;;77.47;34.83;;;12.10;99.90;;;;;;5091409;28;20207;-73
2022/11/02 03:57:29;;;;;;;73.57;34.50;;;12.10;99.90;;;;;;5090972;28;20570;-72
2022/11/02 04:00:09;;;;;;;80.77;36.03;;;12.10;99.90;;;;;;5091515;28;20211;-74
2022/11/02 04:02:37;;;;;;;81.23;36.83;;;12.10;99.90;;;;;;5090493;28;20204;-74
2022/11/02 04:05:04;;;;;;;76.07;36.47;;;12.10;99.90;;;;;;5091730;28;20201;-73
2022/11/02 04:08:19;;;;;;;78.60;37.70;;;12.10;99.90;;;;;;5090829;28;20236;-73
2022/11/02 04:10:21;;;;;;;83.33;37.70;;;12.10;99.90;;;;;;5090528;28;20197;-73
2022/11/02 04:15:34;;;;;;;85.70;38.67;;;12.20;99.90;;;;;;5091007;28;20269;-73
2022/11/02 04:20:50;;;;;;;94.43;40.83;;;12.20;99.90;;;;;;5091048;28;20199;-73
2022/11/02 04:26:01;;;;;;;90.07;40.60;;;12.30;99.90;;;;;;5089768;28;20695;-73
2022/11/02 04:28:27;;;;;;;99.77;40.27;;;12.30;99.90;;;;;;5092222;28;20584;-73
2022/11/02 04:30:58;;;;;;;104.83;40.47;;;12.20;99.90;;;;;;5090853;28;20212;-73
2022/11/02 04:33:32;;;;;;;104.97;42.20;;;12.30;99.90;;;;;;5089809;28;20665;-73
2022/11/02 04:36:01;;;;;;;99.40;40.90;;;12.20;99.90;;;;;;5088870;28;20223;-73
2022/11/02 04:38:39;;;;;;;100.97;41.70;;;12.30;99.90;;;;;;5079867;28;20201;-73
2022/11/02 04:43:50;;;;;;;93.90;40.27;;;12.30;99.90;;;;;;5091090;28;20681;-74
2022/11/02 04:46:18;;;;;;;107.43;42.37;;;12.20;99.90;;;;;;5092107;28;20228;-74
2022/11/02 04:48:45;;;;;;;102.97;42.53;;;12.30;99.90;;;;;;5091306;28;20208;-74
2022/11/02 04:51:12;;;;;;;105.23;42.03;;;12.30;99.90;;;;;;5090523;28;20204;-73
2022/11/02 04:53:38;;;;;;;116.77;43.27;;;12.20;99.90;;;;;;5090288;28;20219;-72
2022/11/02 04:56:06;;;;;;;102.30;41.80;;;12.30;99.90;;;;;;5091302;28;20204;-74
2022/11/02 04:58:33;;;;;;;103.90;44.00;;;12.30;99.90;;;;;;5090345;28;20208;-73
2022/11/02 05:01:04;;;;;;;113.80;42.70;;;12.30;99.90;;;;;;5090463;28;20209;-73
2022/11/02 05:03:33;;;;;;;111.23;44.53;;;12.30;99.90;;;;;;5091682;28;20204;-73
2022/11/02 05:05:59;;;;;;;113.47;43.00;;;12.30;99.90;;;;;;5089322;28;20224;-73
2022/11/02 05:08:26;;;;;;;113.33;43.43;;;12.30;99.90;;;;;;5089170;28;20242;-73
2022/11/02 05:10:55;;;;;;;106.57;44.47;;;12.30;99.90;;;;;;5085901;28;20212;-73
2022/11/02 05:13:22;;;;;;;105.73;43.33;;;12.30;99.90;;;;;;5091246;28;20255;-74
2022/11/02 05:15:48;;;;;;;104.23;42.13;;;12.30;99.90;;;;;;5086570;28;20219;-73
2022/11/02 05:18:15;;;;;;;105.30;46.13;;;12.40;99.90;;;;;;5090237;28;20205;-73
2022/11/02 05:20:49;;;;;;;102.73;43.90;;;12.40;99.90;;;;;;5090256;28;20207;-73
2022/11/02 05:23:15;;;;;;;101.53;42.87;;;12.40;99.90;;;;;;5089805;28;20590;-72
2022/11/02 05:25:42;;;;;;;105.03;42.30;;;12.40;99.90;;;;;;5087825;28;20619;-73
2022/11/02 05:28:09;;;;;;;105.90;45.13;;;12.40;99.90;;;;;;5091198;28;20231;-73
2022/11/02 05:30:36;;;;;;;101.57;42.97;;;12.50;99.90;;;;;;5089245;28;20212;-73
2022/11/02 05:33:02;;;;;;;101.80;44.67;;;12.40;99.90;;;;;;5083813;28;20227;-68
2022/11/02 05:35:29;;;;;;;101.60;41.37;;;12.40;99.90;;;;;;5081824;28;20209;-68
2022/11/02 05:37:57;;;;;;;97.60;44.23;;;12.50;99.90;;;;;;5090316;28;20200;-68
2022/11/02 05:40:24;;;;;;;100.53;44.00;;;12.40;99.90;;;;;;5088808;28;20287;-67
2022/11/02 05:42:51;;;;;;;95.77;42.70;;;12.40;99.90;;;;;;5086533;28;20219;-69
2022/11/02 05:45:17;;;;;;;95.17;43.07;;;12.50;99.90;;;;;;5088809;28;20205;-73
2022/11/02 05:47:44;;;;;;;93.27;42.40;;;12.50;99.90;;;;;;5090747;28;20247;-73
2022/11/02 05:50:11;;;;;;;99.00;42.53;;;12.50;99.90;;;;;;5092408;28;20212;-73
2022/11/02 05:52:38;;;;;;;93.27;42.30;;;12.50;99.90;;;;;;5089009;28;20211;-73
2022/11/02 05:55:07;;;;;;;95.90;43.23;;;12.50;99.90;;;;;;5088128;28;20213;-73
2022/11/02 05:57:34;;;;;;;90.70;42.53;;;12.50;99.90;;;;;;5084333;28;20201;-67
2022/11/02 06:00:00;;;;;;;88.67;39.63;;;12.60;99.90;;;;;;5087654;28;20224;-68
2022/11/02 06:02:27;;;;;;;96.20;40.13;;;12.60;99.90;;;;;;5082558;28;20610;-67
2022/11/02 06:04:54;;;;;;;90.80;40.87;;;12.60;99.90;;;;;;5086408;28;20216;-66
2022/11/02 06:07:21;;;;;;;85.83;38.87;;;12.60;99.90;;;;;;5085963;28;20228;-69
2022/11/02 06:09:48;;;;;;;87.93;39.87;;;12.60;99.90;;;;;;5086456;28;20208;-67
2022/11/02 06:12:16;;;;;;;91.30;40.10;;;12.60;99.90;;;;;;5090519;28;20211;-70
2022/11/02 06:14:43;;;;;;;91.23;40.33;;;12.70;99.90;;;;;;5088608;28;20204;-68
2022/11/02 06:17:09;;;;;;;86.10;38.83;;;12.70;99.90;;;;;;5080318;28;20547;-68
2022/11/02 06:19:36;;;;;;;74.27;36.43;;;12.70;99.90;;;;;;5088891;28;20215;-75
2022/11/02 06:22:03;;;;;;;84.30;37.83;;;12.70;99.90;;;;;;5087077;28;20213;-71
2022/11/02 06:24:30;;;;;;;84.40;36.87;;;12.70;99.90;;;;;;5091130;28;20204;-69
2022/11/02 06:26:56;;;;;;;70.70;38.07;;;12.70;99.90;;;;;;5090001;28;20283;-70
2022/11/02 06:29:25;;;;;;;74.70;36.20;;;12.70;99.90;;;;;;5091929;28;20204;-70
2022/11/02 06:31:51;;;;;;;70.73;35.23;;;12.70;99.90;;;;;;5090702;28;20209;-69
2022/11/02 06:34:18;;;;;;;73.87;33.93;;;12.80;99.90;;;;;;5091595;28;20215;-71
2022/11/02 06:36:45;;;;;;;70.53;33.20;;;12.70;99.90;;;;;;5090114;28;20208;-75
2022/11/02 06:39:11;;;;;;;70.30;34.20;;;12.80;99.90;;;;;;5091352;28;20239;-69
2022/11/02 06:41:38;;;;;;;68.90;34.23;;;12.80;99.90;;;;;;5088472;28;20216;-69
2022/11/02 06:44:05;;;;;;;64.07;32.47;;;12.80;99.90;;;;;;5089683;28;20204;-69
2022/11/02 06:46:34;;;;;;;61.07;32.10;;;12.80;99.90;;;;;;5086554;28;20223;-66
2022/11/02 06:49:00;;;;;;;60.33;29.97;;;12.90;99.90;;;;;;5090487;28;20200;-68
2022/11/02 06:51:27;;;;;;;54.60;29.30;;;12.90;99.90;;;;;;5086387;28;20201;-69
2022/11/02 06:53:54;;;;;;;61.63;29.13;;;12.90;99.90;;;;;;5090634;28;20212;-68
2022/11/02 06:56:21;;;;;;;54.77;28.80;;;12.90;99.90;;;;;;5088348;28;20216;-68
2022/11/02 06:58:47;;;;;;;57.97;29.33;;;12.90;99.90;;;;;;5090817;28;20636;-69
2022/11/02 07:01:14;;;;;;;47.33;26.70;;;12.90;99.90;;;;;;5089147;28;20205;-69
2022/11/02 07:03:42;;;;;;;48.80;26.57;;;13.00;99.90;;;;;;5092521;28;20212;-68
2022/11/02 07:06:09;;;;;;;51.97;27.47;;;13.00;99.90;;;;;;5089396;28;20228;-68
2022/11/02 07:08:36;;;;;;;53.00;27.17;;;13.00;99.90;;;;;;5080202;28;20240;-68
2022/11/02 07:11:03;;;;;;;49.67;25.73;;;13.00;99.90;;;;;;5091708;28;20208;-68
2022/11/02 07:13:30;;;;;;;46.23;24.50;;;13.10;99.90;;;;;;5091549;28;20293;-68
2022/11/02 07:15:57;;;;;;;36.63;21.73;;;13.10;99.90;;;;;;5090742;28;20207;-68
2022/11/02 07:18:24;;;;;;;37.53;22.27;;;13.10;99.90;;;;;;5090473;28;20209;-66
2022/11/02 07:20:52;;;;;;;39.53;22.47;;;13.10;99.90;;;;;;5086524;28;20207;-66
2022/11/02 07:23:22;;;;;;;39.23;23.77;;;13.20;99.90;;;;;;5090678;28;20535;-68
2022/11/02 07:25:49;;;;;;;39.43;22.27;;;13.20;99.90;;;;;;5091266;28;20197;-67
2022/11/02 07:28:15;;;;;;;34.23;19.73;;;13.20;99.90;;;;;;5092241;28;20232;-67
2022/11/02 07:30:42;;;;;;;35.07;20.40;;;13.20;99.90;;;;;;5090782;28;20542;-67
2022/11/02 07:33:09;;;;;;;34.23;20.90;;;13.30;99.90;;;;;;5091985;28;20988;-68
2022/11/02 07:35:36;;;;;;;37.83;21.73;;;13.30;99.90;;;;;;5082479;28;20211;-67
2022/11/02 07:38:06;;;;;;;33.17;18.93;;;13.40;99.90;;;;;;5091719;28;20211;-67
2022/11/02 07:40:35;;;;;;;33.60;20.20;;;13.60;99.90;;;;;;5089780;28;20213;-67
2022/11/02 07:43:02;;;;;;;34.10;18.70;;;13.90;99.90;;;;;;5090851;28;20231;-76
2022/11/02 07:45:29;;;;;;;28.63;18.77;;;14.40;99.90;;;;;;5087470;28;20230;-67
2022/11/02 07:47:58;;;;;;;34.10;19.40;;;14.60;99.90;;;;;;5090808;28;20225;-68
2022/11/02 07:50:26;;;;;;;29.83;18.63;;;14.90;99.90;;;;;;5089553;28;20208;-67
2022/11/02 07:52:54;;;;;;;35.63;20.33;;;15.20;99.90;;;;;;5090048;28;20208;-69
2022/11/02 07:55:24;;;;;;;31.70;18.53;;;15.40;99.90;;;;;;5089875;28;20201;-67
2022/11/02 07:57:55;;;;;;;30.00;18.07;;;15.60;99.90;;;;;;5090666;28;20559;-67
2022/11/02 08:00:22;;;;;;;28.37;17.70;;;15.80;99.90;;;;;;5087869;28;20200;-68
2022/11/02 08:02:50;;;;;;;32.83;19.27;;;16.00;99.90;;;;;;5085179;28;20201;-67
2022/11/02 08:05:17;;;;;;;30.90;19.40;;;16.10;99.90;;;;;;5086843;28;20253;-67
2022/11/02 08:07:43;;;;;;;30.97;19.17;;;16.30;99.90;;;;;;5088567;28;20608;-67
2022/11/02 08:10:10;;;;;;;29.47;18.90;;;16.40;99.90;;;;;;5086993;28;20216;-68
2022/11/02 08:12:38;;;;;;;31.25;18.70;;;16.40;99.90;;;;;;5086867;28;20295;-67
2022/11/02 08:15:06;;;;;;;32.17;18.90;;;16.40;99.90;;;;;;5087145;28;20653;-68
2022/11/02 08:17:33;;;;;;;32.13;18.73;;;16.30;99.90;;;;;;5090188;28;20207;-68
2022/11/02 08:20:00;;;;;;;34.80;19.83;;;16.30;99.90;;;;;;5091004;28;20216;-68
2022/11/02 08:22:26;;;;;;;35.77;20.73;;;16.20;99.90;;;;;;5090328;28;20263;-68
2022/11/02 08:24:53;;;;;;;30.90;19.50;;;16.10;99.90;;;;;;5089751;28;20661;-67
2022/11/02 08:27:20;;;;;;;30.83;19.60;;;15.90;99.90;;;;;;5087787;28;20594;-67
2022/11/02 08:29:48;;;;;;;30.80;19.20;;;15.80;99.90;;;;;;5090037;28;20577;-68
2022/11/02 08:32:15;;;;;;;32.23;19.53;;;15.80;99.90;;;;;;5091185;28;20197;-68
2022/11/02 08:34:42;;;;;;;31.90;19.57;;;15.70;99.90;;;;;;5085905;28;20551;-67
2022/11/02 08:37:08;;;;;;;31.77;19.53;;;15.70;99.90;;;;;;5088592;28;20209;-67
2022/11/02 08:39:35;;;;;;;27.17;17.23;;;15.70;99.90;;;;;;5089975;28;20215;-68
2022/11/02 08:42:02;;;;;;;28.77;18.23;;;15.80;99.90;;;;;;5087796;28;20219;-68
2022/11/02 08:44:28;;;;;;;29.07;18.67;;;15.90;99.90;;;;;;5089572;28;20208;-67
2022/11/02 08:46:57;;;;;;;28.20;17.97;;;15.80;99.90;;;;;;5086966;28;20224;-68
2022/11/02 08:49:23;;;;;;;24.73;18.57;;;15.70;99.90;;;;;;5089946;28;20656;-67
2022/11/02 08:51:50;;;;;;;27.17;18.47;;;15.70;99.90;;;;;;5092369;28;20257;-67
2022/11/02 08:54:17;;;;;;;29.70;19.57;;;15.60;99.90;;;;;;5094324;28;20208;-68
2022/11/02 08:56:44;;;;;;;30.40;19.23;;;15.60;99.90;;;;;;5088930;28;20576;-67
2022/11/02 08:59:11;;;;;;;32.63;21.07;;;15.50;99.90;;;;;;5087861;28;20739;-67
2022/11/02 09:01:38;;;;;;;29.90;20.70;;;15.40;99.90;;;;;;5087189;28;20216;-68
2022/11/02 09:04:06;;;;;;;25.47;19.93;;;15.50;99.90;;;;;;5082888;28;20204;-67
2022/11/02 09:06:33;;;;;;;29.35;19.58;;;15.70;99.90;;;;;;5087079;28;20203;-67
2022/11/02 09:09:00;;;;;;;28.90;19.43;;;15.90;99.90;;;;;;5087924;28;20575;-68
2022/11/02 09:11:28;;;;;;;29.17;19.83;;;16.00;99.90;;;;;;5086751;28;20832;-67
2022/11/02 09:13:54;;;;;;;27.33;20.10;;;15.90;99.90;;;;;;5085082;28;20341;-68
2022/11/02 09:16:21;;;;;;;27.13;20.53;;;15.80;99.90;;;;;;5090291;28;20196;-68
2022/11/02 09:18:48;;;;;;;29.80;21.50;;;15.60;99.90;;;;;;5090243;28;20212;-67
2022/11/02 09:21:16;;;;;;;27.77;19.70;;;15.40;99.90;;;;;;5090312;28;20204;-67
2022/11/02 09:23:43;;;;;;;27.40;19.90;;;15.20;99.90;;;;;;5090488;28;20228;-68
2022/11/02 09:26:10;;;;;;;27.27;20.30;;;15.10;99.90;;;;;;5089488;28;20204;-68
2022/11/02 09:28:37;;;;;;;26.90;20.07;;;15.00;99.90;;;;;;5089633;28;20243;-67
2022/11/02 09:31:04;;;;;;;31.03;21.30;;;14.90;99.90;;;;;;5088798;28;20214;-67
2022/11/02 09:33:31;;;;;;;32.73;20.80;;;14.80;99.90;;;;;;5089677;28;20204;-68
2022/11/02 09:36:03;;;;;;;28.43;21.30;;;14.70;99.90;;;;;;5087330;28;20208;-68
2022/11/02 09:38:31;;;;;;;29.53;22.10;;;14.70;99.90;;;;;;5090334;28;20588;-67
2022/11/02 09:41:11;;;;;;;29.43;21.10;;;14.70;99.90;;;;;;5089591;28;20215;-68
2022/11/02 09:43:50;;;;;;;34.53;21.40;;;14.60;99.90;;;;;;5088333;28;20211;-68
2022/11/02 09:46:21;;;;;;;30.17;20.20;;;14.60;99.90;;;;;;5081995;28;20209;-68
2022/11/02 09:48:52;;;;;;;24.50;19.30;;;14.60;99.90;;;;;;5086310;28;20228;-67
2022/11/02 09:51:22;;;;;;;27.10;19.40;;;14.60;99.90;;;;;;5087588;28;20201;-67
2022/11/02 09:53:59;;;;;;;28.73;18.10;;;14.50;99.90;;;;;;5082104;28;20219;-67
2022/11/02 09:56:26;;;;;;;26.67;17.80;;;14.60;99.90;;;;;;5080217;28;20200;-67
2022/11/02 09:58:58;;;;;;;27.23;17.13;;;14.60;99.90;;;;;;5090885;28;20653;-68
2022/11/02 10:01:43;;;;;;;27.03;17.60;;;14.60;99.90;;;;;;5078648;28;20202;-70
2022/11/02 10:04:46;;;;;;;31.30;17.10;;;14.60;99.90;;;;;;5083855;28;20657;-69
2022/11/02 10:07:22;;;;;;;24.53;16.03;;;14.50;99.90;;;;;;5068676;28;20240;-69
2022/11/02 10:09:56;;;;;;;24.50;16.83;;;14.50;99.90;;;;;;5092815;28;20204;-69
2022/11/02 10:12:28;;;;;;;25.20;15.90;;;14.50;99.90;;;;;;5088823;28;20212;-69
2022/11/02 10:15:02;;;;;;;25.13;16.87;;;14.50;99.90;;;;;;5090428;28;20208;-69
2022/11/02 10:17:34;;;;;;;29.60;17.43;;;14.40;99.90;;;;;;5092590;28;20249;-69
2022/11/02 10:20:07;;;;;;;24.43;16.43;;;14.40;99.90;;;;;;5086686;28;21683;-69
2022/11/02 10:22:40;;;;;;;26.77;16.77;;;14.40;99.90;;;;;;5089204;28;20636;-69
2022/11/02 10:25:14;;;;;;;24.50;16.83;;;14.50;99.90;;;;;;5086370;28;20207;-69
2022/11/02 10:27:45;;;;;;;25.40;16.60;;;14.40;99.90;;;;;;5085153;28;20217;-69
2022/11/02 10:30:15;;;;;;;20.70;15.90;;;14.40;99.90;;;;;;5081104;28;20215;-72
2022/11/02 10:32:44;;;;;;;23.53;17.10;;;14.40;99.90;;;;;;5092469;28;20200;-70
2022/11/02 10:35:18;;;;;;;24.67;17.03;;;14.40;99.90;;;;;;5094396;28;20204;-70
2022/11/02 10:38:00;;;;;;;24.33;17.00;;;14.40;99.90;;;;;;5095400;28;20212;-69
2022/11/02 10:40:43;;;;;;;25.27;16.77;;;14.40;99.90;;;;;;5089158;28;20204;-71
2022/11/02 10:43:23;;;;;;;25.73;17.20;;;14.40;99.90;;;;;;5086375;28;20205;-70
2022/11/02 10:46:16;;;;;;;24.70;16.63;;;14.40;99.90;;;;;;5088629;28;20522;-70
2022/11/02 10:48:55;;;;;;;28.73;16.77;;;14.50;99.90;;;;;;5087690;28;20844;-70
2022/11/02 10:51:23;;;;;;;23.57;16.57;;;14.50;99.90;;;;;;5085368;28;20200;-70
2022/11/02 10:53:52;;;;;;;31.20;17.73;;;14.50;99.90;;;;;;5089354;28;20205;-70
2022/11/02 10:56:22;;;;;;;24.83;16.17;;;14.60;99.90;;;;;;5089359;28;20228;-69
2022/11/02 10:59:00;;;;;;;24.53;16.43;;;14.60;99.90;;;;;;5088618;28;20203;-69
2022/11/02 11:01:28;;;;;;;22.17;16.40;;;14.60;99.90;;;;;;5089593;28;20229;-70
2022/11/02 11:03:57;;;;;;;21.27;16.53;;;14.60;99.90;;;;;;5083795;28;20239;-71
2022/11/02 11:06:26;;;;;;;27.33;16.50;;;14.60;99.90;;;;;;5090081;28;20236;-70
2022/11/02 11:08:59;;;;;;;22.67;16.43;;;14.80;99.90;;;;;;5085464;28;20232;-70
2022/11/02 11:11:30;;;;;;;23.33;17.13;;;15.00;99.90;;;;;;5086330;28;20211;-70
2022/11/02 11:14:02;;;;;;;22.77;15.67;;;15.20;99.90;;;;;;5084348;28;20199;-71
2022/11/02 11:16:36;;;;;;;22.47;15.97;;;15.30;99.90;;;;;;5088748;28;20645;-77
2022/11/02 11:19:05;;;;;;;20.80;14.53;;;15.40;99.90;;;;;;5078386;28;20193;-69
2022/11/02 11:21:40;;;;;;;20.13;14.67;;;15.60;99.90;;;;;;5089477;28;20216;-69
2022/11/02 11:24:25;;;;;;;22.97;13.97;;;15.70;99.90;;;;;;5092922;28;20318;-69
2022/11/02 11:27:20;;;;;;;19.20;13.83;;;15.80;99.90;;;;;;5092192;28;20204;-69
2022/11/02 11:29:51;;;;;;;19.40;12.60;;;15.70;99.90;;;;;;5068745;28;20214;-69
2022/11/02 11:32:21;;;;;;;17.43;12.70;;;15.70;99.90;;;;;;5092831;28;20213;-69
2022/11/02 11:34:55;;;;;;;13.87;10.87;;;15.70;99.90;;;;;;5089198;28;20209;-69
2022/11/02 11:37:23;;;;;;;15.70;10.97;;;15.90;99.90;;;;;;5085621;28;20212;-69
2022/11/02 11:39:53;;;;;;;17.73;10.63;;;16.10;99.90;;;;;;5088656;28;20204;-69
2022/11/02 11:42:23;;;;;;;12.38;10.25;;;16.50;99.90;;;;;;5090356;28;20213;-69
2022/11/02 11:44:57;;;;;;;12.80;10.45;;;17.20;99.90;;;;;;5089185;28;20213;-69
2022/11/02 11:47:30;;;;;;;14.73;10.43;;;17.40;99.90;;;;;;5092309;28;20653;-69
2022/11/02 11:50:01;;;;;;;14.38;10.40;;;17.30;99.90;;;;;;5090481;28;20665;-68
2022/11/02 11:52:29;;;;;;;14.63;10.50;;;17.10;99.90;;;;;;5089651;28;20200;-70
2022/11/02 11:54:58;;;;;;;13.03;10.37;;;16.80;99.90;;;;;;5093369;28;20665;-69
2022/11/02 11:57:30;;;;;;;14.90;11.48;;;16.50;99.90;;;;;;5091222;28;20676;-70
2022/11/02 12:00:00;;;;;;;13.70;11.02;;;16.40;99.90;;;;;;5092414;28;20215;-70
2022/11/02 12:02:28;;;;;;;16.20;11.97;;;16.20;99.90;;;;;;5087211;28;20272;-68
2022/11/02 12:05:00;;;;;;;15.33;11.70;;;16.00;99.90;;;;;;5087297;28;20239;-70
2022/11/02 12:08:00;;;;;;;14.10;11.52;;;15.90;99.90;;;;;;5089086;28;20283;-69
2022/11/02 12:10:42;;;;;;;15.90;12.50;;;15.80;99.90;;;;;;5089990;28;20201;-69
2022/11/02 12:13:24;;;;;;;15.47;12.07;;;15.80;99.90;;;;;;5086100;28;20291;-68
2022/11/02 12:16:06;;;;;;;14.73;12.05;;;15.90;99.90;;;;;;5085153;28;20563;-68
2022/11/02 12:19:03;;;;;;;18.33;12.55;;;16.10;99.90;;;;;;5086498;28;20245;-68
2022/11/02 12:21:53;;;;;;;16.77;12.93;;;16.30;99.90;;;;;;5084328;28;20222;-68
2022/11/02 12:24:45;;;;;;;18.43;12.87;;;16.40;99.90;;;;;;5084060;28;20849;-68
2022/11/02 12:27:27;;;;;;;18.80;13.00;;;16.50;99.90;;;;;;5090391;28;20287;-69
2022/11/02 12:30:13;;;;;;;17.40;13.13;;;16.60;99.90;;;;;;5091239;28;20291;-68
2022/11/02 12:32:58;;;;;;;17.70;13.30;;;16.50;99.90;;;;;;5091501;28;20200;-69
2022/11/02 12:35:51;;;;;;;15.33;11.53;;;16.50;99.90;;;;;;5080808;28;20581;-67
2022/11/02 12:39:03;;;;;;;16.25;12.13;;;16.60;99.90;;;;;;5077446;28;20193;-68
2022/11/02 12:41:39;;;;;;;21.40;12.27;;;16.60;99.90;;;;;;5020289;28;20210;-68
2022/11/02 12:44:25;;;;;;;17.25;12.02;;;16.60;99.90;;;;;;5085180;28;20200;-69
2022/11/02 12:46:58;;;;;;;15.57;11.60;;;16.60;99.90;;;;;;5091452;28;20201;-68
2022/11/02 12:49:40;;;;;;;16.27;11.93;;;16.50;99.90;;;;;;5085812;28;20227;-68
2022/11/02 12:52:17;;;;;;;16.70;12.03;;;16.50;99.90;;;;;;5073872;28;20207;-69
2022/11/02 12:54:47;;;;;;;15.27;11.63;;;16.40;99.90;;;;;;5082118;28;20205;-69